sensor_id;sensor_type;location;lat;lon;timestamp;temperature;humidity
75819;DHT22;64453;51.944;9.796;2023-04-25T00:02:13;11.80;49.50
75819;DHT22;64453;51.944;9.796;2023-04-25T00:04:40;11.50;50.00
75819;DHT22;64453;51.944;9.796;2023-04-25T00:07:07;10.90;50.30
75819;DHT22;64453;51.944;9.796;2023-04-25T00:09:35;11.10;51.10
75819;DHT22;64453;51.944;9.796;2023-04-25T00:12:02;11.10;50.60
75819;DHT22;64453;51.944;9.796;2023-04-25T00:14:30;11.40;50.70
75819;DHT22;64453;51.944;9.796;2023-04-25T00:16:59;11.30;49.70
75819;DHT22;64453;51.944;9.796;2023-04-25T00:19:27;12.20;49.40
75819;DHT22;64453;51.944;9.796;2023-04-25T00:21:54;12.40;48.90
75819;DHT22;64453;51.944;9.796;2023-04-25T00:24:21;12.00;49.00
75819;DHT22;64453;51.944;9.796;2023-04-25T00:26:49;12.20;48.50
75819;DHT22;64453;51.944;9.796;2023-04-25T00:29:16;11.80;49.10
75819;DHT22;64453;51.944;9.796;2023-04-25T00:31:43;12.20;48.80
75819;DHT22;64453;51.944;9.796;2023-04-25T00:34:10;11.90;49.30
75819;DHT22;64453;51.944;9.796;2023-04-25T00:36:37;12.40;49.00
75819;DHT22;64453;51.944;9.796;2023-04-25T00:39:04;12.60;48.70
75819;DHT22;64453;51.944;9.796;2023-04-25T00:41:32;12.60;47.60
75819;DHT22;64453;51.944;9.796;2023-04-25T00:44:01;12.10;47.80
75819;DHT22;64453;51.944;9.796;2023-04-25T00:46:30;12.00;48.70
75819;DHT22;64453;51.944;9.796;2023-04-25T00:48:57;12.80;48.10
75819;DHT22;64453;51.944;9.796;2023-04-25T00:51:25;12.20;47.50
75819;DHT22;64453;51.944;9.796;2023-04-25T00:53:53;11.80;48.80
75819;DHT22;64453;51.944;9.796;2023-04-25T00:56:20;11.60;49.90
75819;DHT22;64453;51.944;9.796;2023-04-25T00:58:48;12.60;49.10
75819;DHT22;64453;51.944;9.796;2023-04-25T01:01:17;11.70;49.20
75819;DHT22;64453;51.944;9.796;2023-04-25T01:03:46;12.40;49.80
75819;DHT22;64453;51.944;9.796;2023-04-25T01:06:16;11.80;49.50
75819;DHT22;64453;51.944;9.796;2023-04-25T01:08:43;11.30;50.60
75819;DHT22;64453;51.944;9.796;2023-04-25T01:11:10;12.20;50.40
75819;DHT22;64453;51.944;9.796;2023-04-25T01:13:37;11.90;48.00
75819;DHT22;64453;51.944;9.796;2023-04-25T01:16:04;11.40;49.50
75819;DHT22;64453;51.944;9.796;2023-04-25T01:18:33;12.60;49.30
75819;DHT22;64453;51.944;9.796;2023-04-25T01:21:08;12.50;48.00
75819;DHT22;64453;51.944;9.796;2023-04-25T01:23:36;11.30;50.40
75819;DHT22;64453;51.944;9.796;2023-04-25T01:26:04;11.80;50.40
75819;DHT22;64453;51.944;9.796;2023-04-25T01:28:33;11.80;49.30
75819;DHT22;64453;51.944;9.796;2023-04-25T01:31:01;11.90;51.20
75819;DHT22;64453;51.944;9.796;2023-04-25T01:33:29;11.70;48.50
75819;DHT22;64453;51.944;9.796;2023-04-25T01:35:56;12.20;49.50
75819;DHT22;64453;51.944;9.796;2023-04-25T01:38:25;12.30;49.60
75819;DHT22;64453;51.944;9.796;2023-04-25T01:40:52;12.10;48.40
75819;DHT22;64453;51.944;9.796;2023-04-25T01:43:20;12.80;47.90
75819;DHT22;64453;51.944;9.796;2023-04-25T01:45:48;12.30;47.80
75819;DHT22;64453;51.944;9.796;2023-04-25T01:48:15;12.80;48.80
75819;DHT22;64453;51.944;9.796;2023-04-25T01:50:44;12.80;48.60
75819;DHT22;64453;51.944;9.796;2023-04-25T01:53:13;13.00;47.80
75819;DHT22;64453;51.944;9.796;2023-04-25T01:55:41;12.40;48.90
75819;DHT22;64453;51.944;9.796;2023-04-25T01:58:08;12.40;49.00
75819;DHT22;64453;51.944;9.796;2023-04-25T02:00:38;12.40;49.30
75819;DHT22;64453;51.944;9.796;2023-04-25T02:03:06;11.70;51.30
75819;DHT22;64453;51.944;9.796;2023-04-25T02:05:35;11.80;51.40
75819;DHT22;64453;51.944;9.796;2023-04-25T02:08:04;12.00;50.60
75819;DHT22;64453;51.944;9.796;2023-04-25T02:10:31;11.50;50.80
75819;DHT22;64453;51.944;9.796;2023-04-25T02:13:00;12.00;51.50
75819;DHT22;64453;51.944;9.796;2023-04-25T02:15:27;10.80;51.20
75819;DHT22;64453;51.944;9.796;2023-04-25T02:17:54;11.20;53.40
75819;DHT22;64453;51.944;9.796;2023-04-25T02:20:22;9.90;55.60
75819;DHT22;64453;51.944;9.796;2023-04-25T02:22:49;10.10;54.80
75819;DHT22;64453;51.944;9.796;2023-04-25T02:25:17;10.90;54.20
75819;DHT22;64453;51.944;9.796;2023-04-25T02:27:45;10.90;54.10
75819;DHT22;64453;51.944;9.796;2023-04-25T02:30:14;11.70;52.30
75819;DHT22;64453;51.944;9.796;2023-04-25T02:32:41;12.00;50.90
75819;DHT22;64453;51.944;9.796;2023-04-25T02:35:08;11.10;52.60
75819;DHT22;64453;51.944;9.796;2023-04-25T02:37:37;10.90;52.70
75819;DHT22;64453;51.944;9.796;2023-04-25T02:40:06;11.60;53.20
75819;DHT22;64453;51.944;9.796;2023-04-25T02:42:35;11.40;52.90
75819;DHT22;64453;51.944;9.796;2023-04-25T02:45:02;11.30;52.70
75819;DHT22;64453;51.944;9.796;2023-04-25T02:47:30;11.70;52.80
75819;DHT22;64453;51.944;9.796;2023-04-25T02:49:57;11.40;52.50
75819;DHT22;64453;51.944;9.796;2023-04-25T02:52:24;12.00;52.50
75819;DHT22;64453;51.944;9.796;2023-04-25T02:54:51;12.10;51.10
75819;DHT22;64453;51.944;9.796;2023-04-25T02:57:18;11.40;52.00
75819;DHT22;64453;51.944;9.796;2023-04-25T02:59:45;11.80;52.50
75819;DHT22;64453;51.944;9.796;2023-04-25T03:02:11;11.80;53.70
75819;DHT22;64453;51.944;9.796;2023-04-25T03:04:40;12.10;52.90
75819;DHT22;64453;51.944;9.796;2023-04-25T03:07:07;11.60;52.80
75819;DHT22;64453;51.944;9.796;2023-04-25T03:09:34;11.10;54.10
75819;DHT22;64453;51.944;9.796;2023-04-25T03:12:01;10.80;55.40
75819;DHT22;64453;51.944;9.796;2023-04-25T03:14:28;10.90;54.80
75819;DHT22;64453;51.944;9.796;2023-04-25T03:16:55;11.10;55.80
75819;DHT22;64453;51.944;9.796;2023-04-25T03:19:22;11.10;54.60
75819;DHT22;64453;51.944;9.796;2023-04-25T03:21:50;11.70;54.80
75819;DHT22;64453;51.944;9.796;2023-04-25T03:24:17;11.30;55.00
75819;DHT22;64453;51.944;9.796;2023-04-25T03:26:44;12.10;53.90
75819;DHT22;64453;51.944;9.796;2023-04-25T03:29:11;12.00;54.40
75819;DHT22;64453;51.944;9.796;2023-04-25T03:31:38;11.80;53.80
75819;DHT22;64453;51.944;9.796;2023-04-25T03:34:05;11.90;54.50
75819;DHT22;64453;51.944;9.796;2023-04-25T03:36:32;12.30;53.20
75819;DHT22;64453;51.944;9.796;2023-04-25T03:39:00;11.10;55.20
75819;DHT22;64453;51.944;9.796;2023-04-25T03:41:27;11.40;55.50
75819;DHT22;64453;51.944;9.796;2023-04-25T03:43:55;12.30;54.20
75819;DHT22;64453;51.944;9.796;2023-04-25T03:46:22;12.70;53.20
75819;DHT22;64453;51.944;9.796;2023-04-25T03:48:48;12.70;53.60
75819;DHT22;64453;51.944;9.796;2023-04-25T03:51:15;12.20;53.40
75819;DHT22;64453;51.944;9.796;2023-04-25T03:53:42;10.50;53.30
75819;DHT22;64453;51.944;9.796;2023-04-25T03:56:10;10.60;55.90
75819;DHT22;64453;51.944;9.796;2023-04-25T03:58:37;10.50;56.00
75819;DHT22;64453;51.944;9.796;2023-04-25T04:01:04;11.00;55.60
75819;DHT22;64453;51.944;9.796;2023-04-25T04:03:33;10.10;56.80
75819;DHT22;64453;51.944;9.796;2023-04-25T04:06:00;9.90;56.60
75819;DHT22;64453;51.944;9.796;2023-04-25T04:08:28;10.50;56.70
75819;DHT22;64453;51.944;9.796;2023-04-25T04:10:55;10.30;57.10
75819;DHT22;64453;51.944;9.796;2023-04-25T04:13:23;10.20;57.20
75819;DHT22;64453;51.944;9.796;2023-04-25T04:15:51;9.90;57.50
75819;DHT22;64453;51.944;9.796;2023-04-25T04:18:19;10.30;56.80
75819;DHT22;64453;51.944;9.796;2023-04-25T04:20:45;10.80;55.30
75819;DHT22;64453;51.944;9.796;2023-04-25T04:23:12;11.60;55.00
75819;DHT22;64453;51.944;9.796;2023-04-25T04:25:39;11.00;53.30
75819;DHT22;64453;51.944;9.796;2023-04-25T04:28:07;10.20;55.90
75819;DHT22;64453;51.944;9.796;2023-04-25T04:30:35;10.50;54.20
75819;DHT22;64453;51.944;9.796;2023-04-25T04:33:03;11.10;54.10
75819;DHT22;64453;51.944;9.796;2023-04-25T04:35:30;11.40;53.80
75819;DHT22;64453;51.944;9.796;2023-04-25T04:37:57;11.70;53.20
75819;DHT22;64453;51.944;9.796;2023-04-25T04:40:23;11.60;52.70
75819;DHT22;64453;51.944;9.796;2023-04-25T04:42:51;11.80;53.10
75819;DHT22;64453;51.944;9.796;2023-04-25T04:45:18;11.80;52.30
75819;DHT22;64453;51.944;9.796;2023-04-25T04:47:47;12.30;51.90
75819;DHT22;64453;51.944;9.796;2023-04-25T04:50:15;12.00;51.20
75819;DHT22;64453;51.944;9.796;2023-04-25T04:52:42;11.20;53.00
75819;DHT22;64453;51.944;9.796;2023-04-25T04:55:09;11.00;51.70
75819;DHT22;64453;51.944;9.796;2023-04-25T04:57:36;11.50;53.70
75819;DHT22;64453;51.944;9.796;2023-04-25T05:00:05;11.20;53.00
75819;DHT22;64453;51.944;9.796;2023-04-25T05:02:36;10.90;52.80
75819;DHT22;64453;51.944;9.796;2023-04-25T05:05:06;10.90;54.10
75819;DHT22;64453;51.944;9.796;2023-04-25T05:07:34;11.10;53.60
75819;DHT22;64453;51.944;9.796;2023-04-25T05:10:01;11.80;52.60
75819;DHT22;64453;51.944;9.796;2023-04-25T05:12:28;11.80;52.10
75819;DHT22;64453;51.944;9.796;2023-04-25T05:14:55;12.20;52.30
75819;DHT22;64453;51.944;9.796;2023-04-25T05:17:22;11.80;52.60
75819;DHT22;64453;51.944;9.796;2023-04-25T05:19:49;11.90;52.60
75819;DHT22;64453;51.944;9.796;2023-04-25T05:22:17;11.60;52.70
75819;DHT22;64453;51.944;9.796;2023-04-25T05:24:44;11.20;53.20
75819;DHT22;64453;51.944;9.796;2023-04-25T05:27:11;11.20;53.20
75819;DHT22;64453;51.944;9.796;2023-04-25T05:29:38;11.10;53.40
75819;DHT22;64453;51.944;9.796;2023-04-25T05:32:05;11.90;53.40
75819;DHT22;64453;51.944;9.796;2023-04-25T05:34:32;12.20;52.80
75819;DHT22;64453;51.944;9.796;2023-04-25T05:36:59;12.80;52.10
75819;DHT22;64453;51.944;9.796;2023-04-25T05:39:28;11.60;50.30
75819;DHT22;64453;51.944;9.796;2023-04-25T05:41:55;11.30;53.00
75819;DHT22;64453;51.944;9.796;2023-04-25T05:44:22;10.80;50.70
75819;DHT22;64453;51.944;9.796;2023-04-25T05:46:49;11.00;52.00
75819;DHT22;64453;51.944;9.796;2023-04-25T05:49:16;10.80;51.20
75819;DHT22;64453;51.944;9.796;2023-04-25T05:51:42;10.80;51.30
75819;DHT22;64453;51.944;9.796;2023-04-25T05:54:09;10.70;51.00
75819;DHT22;64453;51.944;9.796;2023-04-25T05:56:38;10.90;51.20
75819;DHT22;64453;51.944;9.796;2023-04-25T05:59:04;10.80;49.90
75819;DHT22;64453;51.944;9.796;2023-04-25T06:01:31;11.70;51.20
75819;DHT22;64453;51.944;9.796;2023-04-25T06:03:58;11.00;51.00
75819;DHT22;64453;51.944;9.796;2023-04-25T06:06:25;11.70;50.90
75819;DHT22;64453;51.944;9.796;2023-04-25T06:08:53;11.40;49.70
75819;DHT22;64453;51.944;9.796;2023-04-25T06:11:20;11.40;49.20
75819;DHT22;64453;51.944;9.796;2023-04-25T06:13:48;11.00;50.50
75819;DHT22;64453;51.944;9.796;2023-04-25T06:16:15;11.00;51.50
75819;DHT22;64453;51.944;9.796;2023-04-25T06:18:42;11.60;51.30
75819;DHT22;64453;51.944;9.796;2023-04-25T06:21:08;12.20;49.90
75819;DHT22;64453;51.944;9.796;2023-04-25T06:23:35;12.10;50.30
75819;DHT22;64453;51.944;9.796;2023-04-25T06:26:02;12.30;49.90
75819;DHT22;64453;51.944;9.796;2023-04-25T06:28:29;12.20;50.70
75819;DHT22;64453;51.944;9.796;2023-04-25T06:30:57;11.10;51.10
75819;DHT22;64453;51.944;9.796;2023-04-25T06:33:25;10.80;52.70
75819;DHT22;64453;51.944;9.796;2023-04-25T06:35:52;10.90;52.40
75819;DHT22;64453;51.944;9.796;2023-04-25T06:38:19;11.60;52.10
75819;DHT22;64453;51.944;9.796;2023-04-25T06:40:45;12.00;51.10
75819;DHT22;64453;51.944;9.796;2023-04-25T06:43:12;12.10;51.60
75819;DHT22;64453;51.944;9.796;2023-04-25T06:45:39;12.20;50.60
75819;DHT22;64453;51.944;9.796;2023-04-25T06:48:09;12.00;50.80
75819;DHT22;64453;51.944;9.796;2023-04-25T06:50:35;12.30;51.30
75819;DHT22;64453;51.944;9.796;2023-04-25T06:53:02;12.60;50.20
75819;DHT22;64453;51.944;9.796;2023-04-25T06:55:29;12.30;49.20
75819;DHT22;64453;51.944;9.796;2023-04-25T06:57:56;11.70;50.70
75819;DHT22;64453;51.944;9.796;2023-04-25T07:00:23;12.00;50.00
75819;DHT22;64453;51.944;9.796;2023-04-25T07:02:50;11.70;50.50
75819;DHT22;64453;51.944;9.796;2023-04-25T07:05:18;12.30;50.70
75819;DHT22;64453;51.944;9.796;2023-04-25T07:07:45;11.20;49.70
75819;DHT22;64453;51.944;9.796;2023-04-25T07:10:12;11.70;51.50
75819;DHT22;64453;51.944;9.796;2023-04-25T07:12:39;12.00;49.00
75819;DHT22;64453;51.944;9.796;2023-04-25T07:15:07;11.80;49.70
75819;DHT22;64453;51.944;9.796;2023-04-25T07:17:35;11.80;49.80
75819;DHT22;64453;51.944;9.796;2023-04-25T07:20:02;12.10;51.50
75819;DHT22;64453;51.944;9.796;2023-04-25T07:22:32;12.20;48.40
75819;DHT22;64453;51.944;9.796;2023-04-25T07:24:59;11.10;49.20
75819;DHT22;64453;51.944;9.796;2023-04-25T07:27:26;11.90;49.40
75819;DHT22;64453;51.944;9.796;2023-04-25T07:29:53;11.30;46.40
75819;DHT22;64453;51.944;9.796;2023-04-25T07:32:20;11.20;46.90
75819;DHT22;64453;51.944;9.796;2023-04-25T07:34:47;11.00;49.30
75819;DHT22;64453;51.944;9.796;2023-04-25T07:37:14;11.20;49.20
75819;DHT22;64453;51.944;9.796;2023-04-25T07:39:42;11.20;47.00
75819;DHT22;64453;51.944;9.796;2023-04-25T07:42:09;11.60;46.40
75819;DHT22;64453;51.944;9.796;2023-04-25T07:44:35;11.50;47.10
75819;DHT22;64453;51.944;9.796;2023-04-25T07:47:04;11.40;46.70
75819;DHT22;64453;51.944;9.796;2023-04-25T07:49:32;12.00;47.40
75819;DHT22;64453;51.944;9.796;2023-04-25T07:52:00;11.50;46.50
75819;DHT22;64453;51.944;9.796;2023-04-25T07:54:27;11.60;45.70
75819;DHT22;64453;51.944;9.796;2023-04-25T07:56:55;11.60;45.80
75819;DHT22;64453;51.944;9.796;2023-04-25T07:59:22;12.10;47.10
75819;DHT22;64453;51.944;9.796;2023-04-25T08:01:49;12.00;46.00
75819;DHT22;64453;51.944;9.796;2023-04-25T08:04:16;12.10;46.00
75819;DHT22;64453;51.944;9.796;2023-04-25T08:06:43;12.30;46.60
75819;DHT22;64453;51.944;9.796;2023-04-25T08:09:11;12.50;46.70
75819;DHT22;64453;51.944;9.796;2023-04-25T08:11:38;11.40;43.50
75819;DHT22;64453;51.944;9.796;2023-04-25T08:14:06;10.90;44.20
75819;DHT22;64453;51.944;9.796;2023-04-25T08:16:33;11.20;45.60
75819;DHT22;64453;51.944;9.796;2023-04-25T08:19:00;10.50;46.90
75819;DHT22;64453;51.944;9.796;2023-04-25T08:21:27;11.60;47.30
75819;DHT22;64453;51.944;9.796;2023-04-25T08:23:54;11.30;46.40
75819;DHT22;64453;51.944;9.796;2023-04-25T08:26:21;11.10;46.10
75819;DHT22;64453;51.944;9.796;2023-04-25T08:28:48;11.10;45.30
75819;DHT22;64453;51.944;9.796;2023-04-25T08:31:17;11.80;47.50
75819;DHT22;64453;51.944;9.796;2023-04-25T08:33:44;11.80;45.70
75819;DHT22;64453;51.944;9.796;2023-04-25T08:36:11;10.80;46.90
75819;DHT22;64453;51.944;9.796;2023-04-25T08:38:38;11.00;47.00
75819;DHT22;64453;51.944;9.796;2023-04-25T08:41:05;11.50;45.70
75819;DHT22;64453;51.944;9.796;2023-04-25T08:43:33;10.50;46.90
75819;DHT22;64453;51.944;9.796;2023-04-25T08:46:01;10.90;45.40
75819;DHT22;64453;51.944;9.796;2023-04-25T08:48:32;11.30;46.10
75819;DHT22;64453;51.944;9.796;2023-04-25T08:51:02;10.80;44.20
75819;DHT22;64453;51.944;9.796;2023-04-25T08:53:31;11.00;44.50
75819;DHT22;64453;51.944;9.796;2023-04-25T08:56:00;11.80;44.70
75819;DHT22;64453;51.944;9.796;2023-04-25T08:58:28;11.20;44.00
75819;DHT22;64453;51.944;9.796;2023-04-25T09:00:55;12.50;46.00
75819;DHT22;64453;51.944;9.796;2023-04-25T09:03:22;12.00;43.70
75819;DHT22;64453;51.944;9.796;2023-04-25T09:05:51;10.90;44.30
75819;DHT22;64453;51.944;9.796;2023-04-25T09:08:18;11.50;46.40
75819;DHT22;64453;51.944;9.796;2023-04-25T09:10:45;12.20;44.90
75819;DHT22;64453;51.944;9.796;2023-04-25T09:13:13;12.00;42.60
75819;DHT22;64453;51.944;9.796;2023-04-25T09:15:48;12.00;43.70
75819;DHT22;64453;51.944;9.796;2023-04-25T09:18:22;12.40;43.90
75819;DHT22;64453;51.944;9.796;2023-04-25T09:20:53;11.70;41.60
75819;DHT22;64453;51.944;9.796;2023-04-25T09:23:20;11.60;43.60
75819;DHT22;64453;51.944;9.796;2023-04-25T09:25:48;11.50;41.10
75819;DHT22;64453;51.944;9.796;2023-04-25T09:28:16;10.90;41.80
75819;DHT22;64453;51.944;9.796;2023-04-25T09:30:49;11.30;42.90
75819;DHT22;64453;51.944;9.796;2023-04-25T09:33:16;12.00;41.20
75819;DHT22;64453;51.944;9.796;2023-04-25T09:35:43;11.40;40.20
75819;DHT22;64453;51.944;9.796;2023-04-25T09:38:13;11.70;41.10
75819;DHT22;64453;51.944;9.796;2023-04-25T09:40:46;10.90;42.00
75819;DHT22;64453;51.944;9.796;2023-04-25T09:43:19;11.50;42.20
75819;DHT22;64453;51.944;9.796;2023-04-25T09:45:47;11.30;40.10
75819;DHT22;64453;51.944;9.796;2023-04-25T09:48:17;11.00;42.40
75819;DHT22;64453;51.944;9.796;2023-04-25T09:50:45;10.70;39.80
75819;DHT22;64453;51.944;9.796;2023-04-25T09:53:13;11.40;43.50
75819;DHT22;64453;51.944;9.796;2023-04-25T09:55:41;11.90;43.60
75819;DHT22;64453;51.944;9.796;2023-04-25T09:58:11;12.20;39.90
75819;DHT22;64453;51.944;9.796;2023-04-25T10:00:38;11.80;40.40
75819;DHT22;64453;51.944;9.796;2023-04-25T10:03:06;11.50;41.20
75819;DHT22;64453;51.944;9.796;2023-04-25T10:05:34;11.90;40.10
75819;DHT22;64453;51.944;9.796;2023-04-25T10:08:03;11.40;40.90
75819;DHT22;64453;51.944;9.796;2023-04-25T10:10:32;11.90;41.50
75819;DHT22;64453;51.944;9.796;2023-04-25T10:13:03;11.10;40.20
75819;DHT22;64453;51.944;9.796;2023-04-25T10:15:34;11.10;42.60
75819;DHT22;64453;51.944;9.796;2023-04-25T10:18:02;11.20;42.40
75819;DHT22;64453;51.944;9.796;2023-04-25T10:20:29;10.80;42.70
75819;DHT22;64453;51.944;9.796;2023-04-25T10:23:02;10.60;41.50
75819;DHT22;64453;51.944;9.796;2023-04-25T10:25:32;11.20;41.10
75819;DHT22;64453;51.944;9.796;2023-04-25T10:28:00;11.30;39.60
75819;DHT22;64453;51.944;9.796;2023-04-25T10:30:27;10.90;39.60
75819;DHT22;64453;51.944;9.796;2023-04-25T10:32:55;11.10;39.90
75819;DHT22;64453;51.944;9.796;2023-04-25T10:35:25;11.70;40.30
75819;DHT22;64453;51.944;9.796;2023-04-25T10:38:00;11.90;40.20
75819;DHT22;64453;51.944;9.796;2023-04-25T10:40:31;12.20;41.60
75819;DHT22;64453;51.944;9.796;2023-04-25T10:46:13;12.30;40.10
75819;DHT22;64453;51.944;9.796;2023-04-25T10:48:47;12.40;40.60
75819;DHT22;64453;51.944;9.796;2023-04-25T10:51:18;11.80;40.30
75819;DHT22;64453;51.944;9.796;2023-04-25T10:53:46;11.00;40.80
75819;DHT22;64453;51.944;9.796;2023-04-25T10:56:19;11.10;41.20
75819;DHT22;64453;51.944;9.796;2023-04-25T10:58:47;10.60;42.10
75819;DHT22;64453;51.944;9.796;2023-04-25T11:01:15;11.10;42.90
75819;DHT22;64453;51.944;9.796;2023-04-25T11:03:46;11.90;40.90
75819;DHT22;64453;51.944;9.796;2023-04-25T11:06:22;11.10;40.00
75819;DHT22;64453;51.944;9.796;2023-04-25T11:08:50;11.30;39.90
75819;DHT22;64453;51.944;9.796;2023-04-25T11:11:19;11.20;40.80
75819;DHT22;64453;51.944;9.796;2023-04-25T11:13:48;11.00;41.80
75819;DHT22;64453;51.944;9.796;2023-04-25T11:16:15;12.10;40.70
75819;DHT22;64453;51.944;9.796;2023-04-25T11:18:43;12.00;39.50
75819;DHT22;64453;51.944;9.796;2023-04-25T11:21:10;11.80;38.20
75819;DHT22;64453;51.944;9.796;2023-04-25T11:23:38;12.10;39.40
75819;DHT22;64453;51.944;9.796;2023-04-25T11:26:05;10.60;37.10
75819;DHT22;64453;51.944;9.796;2023-04-25T11:28:34;10.60;39.80
75819;DHT22;64453;51.944;9.796;2023-04-25T11:31:02;10.30;39.10
75819;DHT22;64453;51.944;9.796;2023-04-25T11:33:30;10.70;40.30
75819;DHT22;64453;51.944;9.796;2023-04-25T11:35:58;10.70;38.60
75819;DHT22;64453;51.944;9.796;2023-04-25T11:38:25;11.50;41.50
75819;DHT22;64453;51.944;9.796;2023-04-25T11:40:52;11.30;39.90
75819;DHT22;64453;51.944;9.796;2023-04-25T11:43:20;11.70;39.20
75819;DHT22;64453;51.944;9.796;2023-04-25T11:45:50;11.90;38.00
75819;DHT22;64453;51.944;9.796;2023-04-25T11:48:18;10.60;38.50
75819;DHT22;64453;51.944;9.796;2023-04-25T11:50:45;10.90;39.20
75819;DHT22;64453;51.944;9.796;2023-04-25T11:53:12;10.70;38.90
75819;DHT22;64453;51.944;9.796;2023-04-25T11:55:40;11.40;39.80
75819;DHT22;64453;51.944;9.796;2023-04-25T11:58:07;11.60;41.40
75819;DHT22;64453;51.944;9.796;2023-04-25T12:00:34;11.10;39.60
75819;DHT22;64453;51.944;9.796;2023-04-25T12:03:03;11.70;41.10
75819;DHT22;64453;51.944;9.796;2023-04-25T12:05:31;12.50;38.90
75819;DHT22;64453;51.944;9.796;2023-04-25T12:08:09;12.10;38.30
75819;DHT22;64453;51.944;9.796;2023-04-25T12:10:39;11.90;37.70
75819;DHT22;64453;51.944;9.796;2023-04-25T12:13:21;11.70;37.40
75819;DHT22;64453;51.944;9.796;2023-04-25T12:15:49;12.20;38.80
75819;DHT22;64453;51.944;9.796;2023-04-25T12:18:20;12.80;38.30
75819;DHT22;64453;51.944;9.796;2023-04-25T12:20:47;11.60;37.20
75819;DHT22;64453;51.944;9.796;2023-04-25T12:23:14;11.80;39.70
75819;DHT22;64453;51.944;9.796;2023-04-25T12:25:42;12.30;39.10
75819;DHT22;64453;51.944;9.796;2023-04-25T12:28:12;12.50;39.20
75819;DHT22;64453;51.944;9.796;2023-04-25T12:30:55;13.00;39.20
75819;DHT22;64453;51.944;9.796;2023-04-25T12:33:26;12.40;37.30
75819;DHT22;64453;51.944;9.796;2023-04-25T12:35:53;12.40;38.90
75819;DHT22;64453;51.944;9.796;2023-04-25T12:38:24;11.60;36.70
75819;DHT22;64453;51.944;9.796;2023-04-25T12:40:52;12.60;38.70
75819;DHT22;64453;51.944;9.796;2023-04-25T12:43:19;12.80;37.60
75819;DHT22;64453;51.944;9.796;2023-04-25T12:45:48;12.60;37.30
75819;DHT22;64453;51.944;9.796;2023-04-25T12:48:16;12.00;38.00
75819;DHT22;64453;51.944;9.796;2023-04-25T12:50:44;12.20;39.40
75819;DHT22;64453;51.944;9.796;2023-04-25T12:53:14;12.60;39.30
75819;DHT22;64453;51.944;9.796;2023-04-25T12:55:41;12.40;38.10
75819;DHT22;64453;51.944;9.796;2023-04-25T12:58:08;12.50;39.20
75819;DHT22;64453;51.944;9.796;2023-04-25T13:00:35;11.80;39.60
75819;DHT22;64453;51.944;9.796;2023-04-25T13:03:03;11.80;40.40
75819;DHT22;64453;51.944;9.796;2023-04-25T13:05:30;11.60;39.10
75819;DHT22;64453;51.944;9.796;2023-04-25T13:07:58;12.20;41.00
75819;DHT22;64453;51.944;9.796;2023-04-25T13:10:25;12.20;41.10
75819;DHT22;64453;51.944;9.796;2023-04-25T13:12:52;12.60;38.70
75819;DHT22;64453;51.944;9.796;2023-04-25T13:15:19;11.80;37.10
75819;DHT22;64453;51.944;9.796;2023-04-25T13:17:47;12.60;38.70
75819;DHT22;64453;51.944;9.796;2023-04-25T13:20:14;12.90;37.50
75819;DHT22;64453;51.944;9.796;2023-04-25T13:22:41;13.20;38.70
75819;DHT22;64453;51.944;9.796;2023-04-25T13:25:12;13.10;38.10
75819;DHT22;64453;51.944;9.796;2023-04-25T13:27:39;13.10;38.30
75819;DHT22;64453;51.944;9.796;2023-04-25T13:30:06;13.30;36.60
75819;DHT22;64453;51.944;9.796;2023-04-25T13:32:34;12.90;38.10
75819;DHT22;64453;51.944;9.796;2023-04-25T13:35:02;12.90;37.10
75819;DHT22;64453;51.944;9.796;2023-04-25T13:37:30;13.40;37.60
75819;DHT22;64453;51.944;9.796;2023-04-25T13:39:59;13.80;36.20
75819;DHT22;64453;51.944;9.796;2023-04-25T13:42:29;13.20;38.10
75819;DHT22;64453;51.944;9.796;2023-04-25T13:44:56;13.20;34.90
75819;DHT22;64453;51.944;9.796;2023-04-25T13:47:23;12.80;38.60
75819;DHT22;64453;51.944;9.796;2023-04-25T13:49:51;12.30;35.30
75819;DHT22;64453;51.944;9.796;2023-04-25T13:52:19;12.90;38.40
75819;DHT22;64453;51.944;9.796;2023-04-25T13:54:46;12.80;35.00
75819;DHT22;64453;51.944;9.796;2023-04-25T13:57:12;13.10;36.40
75819;DHT22;64453;51.944;9.796;2023-04-25T13:59:41;13.30;37.50
75819;DHT22;64453;51.944;9.796;2023-04-25T14:02:07;12.70;35.40
75819;DHT22;64453;51.944;9.796;2023-04-25T14:04:35;13.10;37.50
75819;DHT22;64453;51.944;9.796;2023-04-25T14:07:02;13.00;35.40
75819;DHT22;64453;51.944;9.796;2023-04-25T14:09:30;13.10;34.60
75819;DHT22;64453;51.944;9.796;2023-04-25T14:11:57;13.10;35.30
75819;DHT22;64453;51.944;9.796;2023-04-25T14:14:24;12.90;36.60
75819;DHT22;64453;51.944;9.796;2023-04-25T14:16:52;13.40;37.70
75819;DHT22;64453;51.944;9.796;2023-04-25T14:19:20;13.10;35.30
75819;DHT22;64453;51.944;9.796;2023-04-25T14:21:47;13.00;37.30
75819;DHT22;64453;51.944;9.796;2023-04-25T14:24:15;13.20;36.00
75819;DHT22;64453;51.944;9.796;2023-04-25T14:26:42;13.60;34.90
75819;DHT22;64453;51.944;9.796;2023-04-25T14:29:09;13.00;34.90
75819;DHT22;64453;51.944;9.796;2023-04-25T14:31:37;12.40;35.60
75819;DHT22;64453;51.944;9.796;2023-04-25T14:34:06;12.80;35.50
75819;DHT22;64453;51.944;9.796;2023-04-25T14:36:34;13.50;37.30
75819;DHT22;64453;51.944;9.796;2023-04-25T14:39:02;13.30;34.40
75819;DHT22;64453;51.944;9.796;2023-04-25T14:41:30;13.40;34.80
75819;DHT22;64453;51.944;9.796;2023-04-25T14:43:57;13.10;34.00
75819;DHT22;64453;51.944;9.796;2023-04-25T14:46:24;12.80;33.30
75819;DHT22;64453;51.944;9.796;2023-04-25T14:48:51;12.60;34.20
75819;DHT22;64453;51.944;9.796;2023-04-25T14:51:20;12.80;34.60
75819;DHT22;64453;51.944;9.796;2023-04-25T14:53:47;13.20;35.50
75819;DHT22;64453;51.944;9.796;2023-04-25T14:56:14;13.10;35.20
75819;DHT22;64453;51.944;9.796;2023-04-25T14:58:40;13.50;35.00
75819;DHT22;64453;51.944;9.796;2023-04-25T15:01:08;13.30;35.00
75819;DHT22;64453;51.944;9.796;2023-04-25T15:03:35;13.10;33.60
75819;DHT22;64453;51.944;9.796;2023-04-25T15:06:02;13.30;35.70
75819;DHT22;64453;51.944;9.796;2023-04-25T15:08:30;12.50;36.00
75819;DHT22;64453;51.944;9.796;2023-04-25T15:10:58;12.60;35.30
75819;DHT22;64453;51.944;9.796;2023-04-25T15:13:26;13.20;35.70
75819;DHT22;64453;51.944;9.796;2023-04-25T15:15:52;12.90;34.60
75819;DHT22;64453;51.944;9.796;2023-04-25T15:18:20;13.50;36.40
75819;DHT22;64453;51.944;9.796;2023-04-25T15:20:48;13.40;37.60
75819;DHT22;64453;51.944;9.796;2023-04-25T15:23:15;13.40;36.50
75819;DHT22;64453;51.944;9.796;2023-04-25T15:25:44;12.70;37.40
75819;DHT22;64453;51.944;9.796;2023-04-25T15:28:11;13.50;38.40
75819;DHT22;64453;51.944;9.796;2023-04-25T15:30:41;13.00;37.60
75819;DHT22;64453;51.944;9.796;2023-04-25T15:33:08;13.50;39.20
75819;DHT22;64453;51.944;9.796;2023-04-25T15:35:36;13.70;39.00
75819;DHT22;64453;51.944;9.796;2023-04-25T15:38:02;13.10;40.40